Terminal Aerodrome Forecast
Issued by NWS

Home | Current Version | Previous Version | Text Only | Print | Product List | Glossary On
Versions: 1 2 3 4 5 6 7 8 9 10 11 12 13 14 15 16 17 18 19 20 21 22 23
000
FTUS43 KILX 211100
TAFBMI
TAF
KBMI 211120Z 2112/2212 28009KT P6SM SKC
     FM211400 31014G22KT P6SM SCT035
      TEMPO 2118/2122 BKN035
     FM212300 34008KT P6SM SCT035
     FM220400 34006KT P6SM SKC=

USA.gov is the U.S. government's official web portal to all federal, state and local government web resources and services.